sensor_id;sensor_type;location;lat;lon;timestamp;temperature;humidity
25839;DHT22;13669;50.186;27.062;2022-08-04T00:02:43;20.10;99.90
25839;DHT22;13669;50.186;27.062;2022-08-04T00:05:03;20.00;99.90
25839;DHT22;13669;50.186;27.062;2022-08-04T00:10:27;19.90;99.90
25839;DHT22;13669;50.186;27.062;2022-08-04T00:12:55;19.90;99.90
25839;DHT22;13669;50.186;27.062;2022-08-04T00:15:25;19.90;99.90
25839;DHT22;13669;50.186;27.062;2022-08-04T00:17:57;19.90;99.90
25839;DHT22;13669;50.186;27.062;2022-08-04T00:20:30;19.90;99.90
25839;DHT22;13669;50.186;27.062;2022-08-04T00:22:59;19.80;99.90
25839;DHT22;13669;50.186;27.062;2022-08-04T00:25:27;19.80;99.90
25839;DHT22;13669;50.186;27.062;2022-08-04T00:27:55;19.70;1.00
25839;DHT22;13669;50.186;27.062;2022-08-04T00:30:23;19.70;1.00
25839;DHT22;13669;50.186;27.062;2022-08-04T00:32:51;19.70;1.00
25839;DHT22;13669;50.186;27.062;2022-08-04T00:35:19;19.70;1.00
25839;DHT22;13669;50.186;27.062;2022-08-04T00:37:47;19.60;1.00
25839;DHT22;13669;50.186;27.062;2022-08-04T00:40:40;19.60;1.00
25839;DHT22;13669;50.186;27.062;2022-08-04T00:43:32;19.50;1.00
25839;DHT22;13669;50.186;27.062;2022-08-04T00:55:26;19.40;1.00
25839;DHT22;13669;50.186;27.062;2022-08-04T01:00:47;19.30;1.00
25839;DHT22;13669;50.186;27.062;2022-08-04T01:12:42;19.30;1.00
25839;DHT22;13669;50.186;27.062;2022-08-04T01:15:52;19.20;1.00
25839;DHT22;13669;50.186;27.062;2022-08-04T01:18:35;19.20;1.00
25839;DHT22;13669;50.186;27.062;2022-08-04T01:29:33;19.00;1.00
25839;DHT22;13669;50.186;27.062;2022-08-04T01:35:04;18.90;6.70
25839;DHT22;13669;50.186;27.062;2022-08-04T01:40:13;18.90;11.50
25839;DHT22;13669;50.186;27.062;2022-08-04T01:42:41;18.90;9.90
25839;DHT22;13669;50.186;27.062;2022-08-04T01:45:11;18.80;16.90
25839;DHT22;13669;50.186;27.062;2022-08-04T01:47:49;18.80;19.10
25839;DHT22;13669;50.186;27.062;2022-08-04T01:50:17;18.80;19.50
25839;DHT22;13669;50.186;27.062;2022-08-04T01:52:45;18.80;18.40
25839;DHT22;13669;50.186;27.062;2022-08-04T01:55:17;18.70;22.60
25839;DHT22;13669;50.186;27.062;2022-08-04T01:57:50;18.70;26.70
25839;DHT22;13669;50.186;27.062;2022-08-04T02:00:21;18.70;35.80
25839;DHT22;13669;50.186;27.062;2022-08-04T02:02:50;18.70;38.90
25839;DHT22;13669;50.186;27.062;2022-08-04T02:05:20;18.70;37.00
25839;DHT22;13669;50.186;27.062;2022-08-04T02:08:08;18.70;38.80
25839;DHT22;13669;50.186;27.062;2022-08-04T02:13:28;18.70;36.50
25839;DHT22;13669;50.186;27.062;2022-08-04T02:21:26;18.80;17.00
25839;DHT22;13669;50.186;27.062;2022-08-04T02:24:13;18.80;11.90
25839;DHT22;13669;50.186;27.062;2022-08-04T02:26:46;18.70;19.90
25839;DHT22;13669;50.186;27.062;2022-08-04T02:29:20;18.80;22.10
25839;DHT22;13669;50.186;27.062;2022-08-04T02:37:04;18.80;9.00
25839;DHT22;13669;50.186;27.062;2022-08-04T02:39:36;18.80;14.90
25839;DHT22;13669;50.186;27.062;2022-08-04T02:42:15;18.80;9.40
25839;DHT22;13669;50.186;27.062;2022-08-04T02:44:49;18.80;7.10
25839;DHT22;13669;50.186;27.062;2022-08-04T02:47:20;18.80;4.50
25839;DHT22;13669;50.186;27.062;2022-08-04T02:49:50;18.80;10.00
25839;DHT22;13669;50.186;27.062;2022-08-04T02:52:19;18.90;1.00
25839;DHT22;13669;50.186;27.062;2022-08-04T02:54:51;18.80;2.00
25839;DHT22;13669;50.186;27.062;2022-08-04T02:57:22;18.80;3.90
25839;DHT22;13669;50.186;27.062;2022-08-04T03:00:08;18.80;2.10
25839;DHT22;13669;50.186;27.062;2022-08-04T03:22:28;18.80;15.10
25839;DHT22;13669;50.186;27.062;2022-08-04T03:33:41;18.80;16.10
25839;DHT22;13669;50.186;27.062;2022-08-04T03:51:30;19.00;1.00
25839;DHT22;13669;50.186;27.062;2022-08-04T03:57:03;19.00;1.00
25839;DHT22;13669;50.186;27.062;2022-08-04T04:11:22;19.40;1.00
25839;DHT22;13669;50.186;27.062;2022-08-04T04:16:55;19.60;1.00
25839;DHT22;13669;50.186;27.062;2022-08-04T04:25:02;19.60;1.00
25839;DHT22;13669;50.186;27.062;2022-08-04T04:30:18;19.70;1.00
25839;DHT22;13669;50.186;27.062;2022-08-04T04:41:52;19.60;1.00
25839;DHT22;13669;50.186;27.062;2022-08-04T04:47:32;19.70;1.00
25839;DHT22;13669;50.186;27.062;2022-08-04T04:50:36;19.90;1.00
25839;DHT22;13669;50.186;27.062;2022-08-04T04:53:29;19.90;1.00
25839;DHT22;13669;50.186;27.062;2022-08-04T04:56:07;19.90;1.00
25839;DHT22;13669;50.186;27.062;2022-08-04T04:58:35;20.00;1.00
25839;DHT22;13669;50.186;27.062;2022-08-04T05:06:56;20.20;1.00
25839;DHT22;13669;50.186;27.062;2022-08-04T05:09:45;20.20;1.00
25839;DHT22;13669;50.186;27.062;2022-08-04T05:12:25;20.20;1.00
25839;DHT22;13669;50.186;27.062;2022-08-04T05:15:19;20.30;1.00
25839;DHT22;13669;50.186;27.062;2022-08-04T05:17:54;20.30;1.00
25839;DHT22;13669;50.186;27.062;2022-08-04T05:20:32;20.30;1.00
25839;DHT22;13669;50.186;27.062;2022-08-04T05:23:27;20.40;1.00
25839;DHT22;13669;50.186;27.062;2022-08-04T05:26:00;20.40;1.00
25839;DHT22;13669;50.186;27.062;2022-08-04T05:28:33;20.50;1.00
25839;DHT22;13669;50.186;27.062;2022-08-04T05:31:11;20.50;1.00
25839;DHT22;13669;50.186;27.062;2022-08-04T05:33:46;20.60;1.00
25839;DHT22;13669;50.186;27.062;2022-08-04T05:36:17;20.70;1.00
25839;DHT22;13669;50.186;27.062;2022-08-04T05:39:09;20.80;1.00
25839;DHT22;13669;50.186;27.062;2022-08-04T05:41:40;20.80;1.00
25839;DHT22;13669;50.186;27.062;2022-08-04T05:44:14;20.90;1.00
25839;DHT22;13669;50.186;27.062;2022-08-04T05:46:47;21.00;1.00
25839;DHT22;13669;50.186;27.062;2022-08-04T05:49:25;20.90;1.00
25839;DHT22;13669;50.186;27.062;2022-08-04T05:51:57;20.90;1.00
25839;DHT22;13669;50.186;27.062;2022-08-04T05:54:26;21.00;1.00
25839;DHT22;13669;50.186;27.062;2022-08-04T05:56:55;21.00;1.00
25839;DHT22;13669;50.186;27.062;2022-08-04T05:59:24;21.10;1.00
25839;DHT22;13669;50.186;27.062;2022-08-04T06:01:55;21.20;1.00
25839;DHT22;13669;50.186;27.062;2022-08-04T06:04:30;21.30;1.00
25839;DHT22;13669;50.186;27.062;2022-08-04T06:06:58;21.20;1.00
25839;DHT22;13669;50.186;27.062;2022-08-04T06:09:26;21.30;1.00
25839;DHT22;13669;50.186;27.062;2022-08-04T06:11:56;21.40;1.00
25839;DHT22;13669;50.186;27.062;2022-08-04T06:14:42;21.40;99.90
25839;DHT22;13669;50.186;27.062;2022-08-04T06:17:18;21.50;99.90
25839;DHT22;13669;50.186;27.062;2022-08-04T06:20:09;21.60;99.90
25839;DHT22;13669;50.186;27.062;2022-08-04T06:23:00;21.70;99.90
25839;DHT22;13669;50.186;27.062;2022-08-04T06:25:35;21.80;99.90
25839;DHT22;13669;50.186;27.062;2022-08-04T06:28:05;21.80;99.90
25839;DHT22;13669;50.186;27.062;2022-08-04T06:30:33;21.80;99.90
25839;DHT22;13669;50.186;27.062;2022-08-04T06:33:03;21.90;99.90
25839;DHT22;13669;50.186;27.062;2022-08-04T06:35:40;22.00;99.90
25839;DHT22;13669;50.186;27.062;2022-08-04T06:38:08;22.10;99.90
25839;DHT22;13669;50.186;27.062;2022-08-04T06:40:38;22.20;1.00
25839;DHT22;13669;50.186;27.062;2022-08-04T06:43:06;22.30;1.00
25839;DHT22;13669;50.186;27.062;2022-08-04T06:45:36;22.40;99.90
25839;DHT22;13669;50.186;27.062;2022-08-04T06:48:06;22.40;99.90
25839;DHT22;13669;50.186;27.062;2022-08-04T06:50:35;22.50;99.90
25839;DHT22;13669;50.186;27.062;2022-08-04T06:53:24;22.50;1.00
25839;DHT22;13669;50.186;27.062;2022-08-04T06:55:53;22.50;1.00
25839;DHT22;13669;50.186;27.062;2022-08-04T06:58:23;22.60;1.00
25839;DHT22;13669;50.186;27.062;2022-08-04T07:00:52;22.70;1.00
25839;DHT22;13669;50.186;27.062;2022-08-04T07:03:21;22.80;99.90
25839;DHT22;13669;50.186;27.062;2022-08-04T07:05:50;22.90;99.90
25839;DHT22;13669;50.186;27.062;2022-08-04T07:08:18;22.90;99.90
25839;DHT22;13669;50.186;27.062;2022-08-04T07:10:46;23.00;99.90
25839;DHT22;13669;50.186;27.062;2022-08-04T07:13:14;23.00;99.90
25839;DHT22;13669;50.186;27.062;2022-08-04T07:15:44;23.00;99.90
25839;DHT22;13669;50.186;27.062;2022-08-04T07:18:13;23.00;99.90
25839;DHT22;13669;50.186;27.062;2022-08-04T07:20:44;23.20;51.70
25839;DHT22;13669;50.186;27.062;2022-08-04T07:23:13;23.30;1.00
25839;DHT22;13669;50.186;27.062;2022-08-04T07:25:49;23.50;99.90
25839;DHT22;13669;50.186;27.062;2022-08-04T07:28:39;23.70;30.10
25839;DHT22;13669;50.186;27.062;2022-08-04T07:31:09;23.90;1.00
25839;DHT22;13669;50.186;27.062;2022-08-04T07:33:58;24.00;99.90
25839;DHT22;13669;50.186;27.062;2022-08-04T07:36:50;24.10;92.10
25839;DHT22;13669;50.186;27.062;2022-08-04T07:39:22;24.10;1.00
25839;DHT22;13669;50.186;27.062;2022-08-04T07:41:57;24.00;99.90
25839;DHT22;13669;50.186;27.062;2022-08-04T07:44:31;24.10;99.90
25839;DHT22;13669;50.186;27.062;2022-08-04T07:47:01;24.10;99.90
25839;DHT22;13669;50.186;27.062;2022-08-04T07:49:29;24.20;99.90
25839;DHT22;13669;50.186;27.062;2022-08-04T07:52:17;24.10;99.90
25839;DHT22;13669;50.186;27.062;2022-08-04T07:54:45;24.00;99.90
25839;DHT22;13669;50.186;27.062;2022-08-04T07:57:15;24.00;99.90
25839;DHT22;13669;50.186;27.062;2022-08-04T08:00:05;24.20;99.90
25839;DHT22;13669;50.186;27.062;2022-08-04T08:02:34;24.50;1.00
25839;DHT22;13669;50.186;27.062;2022-08-04T08:05:03;24.60;99.90
25839;DHT22;13669;50.186;27.062;2022-08-04T08:07:31;24.80;99.90
25839;DHT22;13669;50.186;27.062;2022-08-04T08:09:58;24.90;99.90
25839;DHT22;13669;50.186;27.062;2022-08-04T08:12:28;24.90;99.90
25839;DHT22;13669;50.186;27.062;2022-08-04T08:15:15;24.90;1.00
25839;DHT22;13669;50.186;27.062;2022-08-04T08:17:44;25.00;1.00
25839;DHT22;13669;50.186;27.062;2022-08-04T08:20:24;25.00;1.00
25839;DHT22;13669;50.186;27.062;2022-08-04T08:22:59;25.10;1.00
25839;DHT22;13669;50.186;27.062;2022-08-04T08:25:28;25.30;1.00
25839;DHT22;13669;50.186;27.062;2022-08-04T08:27:56;25.40;1.00
25839;DHT22;13669;50.186;27.062;2022-08-04T08:30:24;25.50;99.90
25839;DHT22;13669;50.186;27.062;2022-08-04T08:33:00;25.60;99.90
25839;DHT22;13669;50.186;27.062;2022-08-04T08:35:48;25.70;99.90
25839;DHT22;13669;50.186;27.062;2022-08-04T08:38:31;25.70;99.90
25839;DHT22;13669;50.186;27.062;2022-08-04T08:44:03;25.80;99.90
25839;DHT22;13669;50.186;27.062;2022-08-04T08:47:26;25.70;99.90
25839;DHT22;13669;50.186;27.062;2022-08-04T08:59:07;25.70;99.90
25839;DHT22;13669;50.186;27.062;2022-08-04T09:04:53;25.70;1.00
25839;DHT22;13669;50.186;27.062;2022-08-04T09:08:01;25.50;1.00
25839;DHT22;13669;50.186;27.062;2022-08-04T09:11:07;25.60;1.00
25839;DHT22;13669;50.186;27.062;2022-08-04T09:13:43;25.90;1.00
25839;DHT22;13669;50.186;27.062;2022-08-04T09:16:25;26.10;1.00
25839;DHT22;13669;50.186;27.062;2022-08-04T09:19:14;26.30;1.00
25839;DHT22;13669;50.186;27.062;2022-08-04T09:25:11;26.70;1.00
25839;DHT22;13669;50.186;27.062;2022-08-04T09:27:54;26.40;1.00
25839;DHT22;13669;50.186;27.062;2022-08-04T09:30:42;26.30;99.90
25839;DHT22;13669;50.186;27.062;2022-08-04T09:33:17;26.20;99.90
25839;DHT22;13669;50.186;27.062;2022-08-04T09:39:25;26.30;99.90
25839;DHT22;13669;50.186;27.062;2022-08-04T09:50:29;26.70;99.90
25839;DHT22;13669;50.186;27.062;2022-08-04T10:01:21;26.80;99.90
25839;DHT22;13669;50.186;27.062;2022-08-04T10:03:54;26.90;99.90
25839;DHT22;13669;50.186;27.062;2022-08-04T10:06:35;27.00;99.90
25839;DHT22;13669;50.186;27.062;2022-08-04T10:12:34;27.10;99.90
25839;DHT22;13669;50.186;27.062;2022-08-04T10:15:30;27.30;99.90
25839;DHT22;13669;50.186;27.062;2022-08-04T10:20:54;27.40;99.90
25839;DHT22;13669;50.186;27.062;2022-08-04T10:29:44;27.10;99.90
25839;DHT22;13669;50.186;27.062;2022-08-04T10:32:26;27.20;99.90
25839;DHT22;13669;50.186;27.062;2022-08-04T10:35:13;27.50;99.90
25839;DHT22;13669;50.186;27.062;2022-08-04T10:40:41;27.70;99.90
25839;DHT22;13669;50.186;27.062;2022-08-04T10:43:38;28.00;99.90
25839;DHT22;13669;50.186;27.062;2022-08-04T10:46:15;28.00;28.50
25839;DHT22;13669;50.186;27.062;2022-08-04T10:57:28;27.40;1.00
25839;DHT22;13669;50.186;27.062;2022-08-04T11:00:05;27.70;1.00
25839;DHT22;13669;50.186;27.062;2022-08-04T11:08:04;29.20;1.00
25839;DHT22;13669;50.186;27.062;2022-08-04T11:13:44;30.30;99.90
25839;DHT22;13669;50.186;27.062;2022-08-04T11:16:20;31.30;99.90
25839;DHT22;13669;50.186;27.062;2022-08-04T11:21:25;33.90;99.90
25839;DHT22;13669;50.186;27.062;2022-08-04T11:24:03;34.50;99.90
25839;DHT22;13669;50.186;27.062;2022-08-04T11:26:47;34.30;99.90
25839;DHT22;13669;50.186;27.062;2022-08-04T11:29:25;33.20;99.90
25839;DHT22;13669;50.186;27.062;2022-08-04T11:31:59;31.40;99.90
25839;DHT22;13669;50.186;27.062;2022-08-04T11:34:29;30.60;99.90
25839;DHT22;13669;50.186;27.062;2022-08-04T11:37:18;30.20;99.90
25839;DHT22;13669;50.186;27.062;2022-08-04T11:40:06;29.60;99.90
25839;DHT22;13669;50.186;27.062;2022-08-04T11:42:40;30.30;99.90
25839;DHT22;13669;50.186;27.062;2022-08-04T11:45:26;31.60;99.90
25839;DHT22;13669;50.186;27.062;2022-08-04T11:48:18;32.10;99.90
25839;DHT22;13669;50.186;27.062;2022-08-04T11:50:52;32.10;99.90
25839;DHT22;13669;50.186;27.062;2022-08-04T11:53:25;33.60;99.90
25839;DHT22;13669;50.186;27.062;2022-08-04T11:56:06;35.10;99.90
25839;DHT22;13669;50.186;27.062;2022-08-04T11:58:38;34.10;99.90
25839;DHT22;13669;50.186;27.062;2022-08-04T12:01:33;32.60;99.90
25839;DHT22;13669;50.186;27.062;2022-08-04T12:04:11;31.70;99.90
25839;DHT22;13669;50.186;27.062;2022-08-04T12:07:04;31.20;99.90
25839;DHT22;13669;50.186;27.062;2022-08-04T12:16:21;34.90;99.90
25839;DHT22;13669;50.186;27.062;2022-08-04T12:18:59;35.90;99.90
25839;DHT22;13669;50.186;27.062;2022-08-04T12:21:38;35.30;99.90
25839;DHT22;13669;50.186;27.062;2022-08-04T12:24:21;35.60;99.90
25839;DHT22;13669;50.186;27.062;2022-08-04T12:26:52;36.20;99.90
25839;DHT22;13669;50.186;27.062;2022-08-04T12:29:22;35.00;99.90
25839;DHT22;13669;50.186;27.062;2022-08-04T12:31:55;33.90;99.90
25839;DHT22;13669;50.186;27.062;2022-08-04T12:34:33;34.50;99.90
25839;DHT22;13669;50.186;27.062;2022-08-04T12:37:06;35.40;99.90
25839;DHT22;13669;50.186;27.062;2022-08-04T12:39:37;36.20;99.90
25839;DHT22;13669;50.186;27.062;2022-08-04T12:42:42;36.50;99.90
25839;DHT22;13669;50.186;27.062;2022-08-04T12:45:26;37.00;99.90
25839;DHT22;13669;50.186;27.062;2022-08-04T12:47:57;36.90;99.90
25839;DHT22;13669;50.186;27.062;2022-08-04T12:50:26;36.60;99.90
25839;DHT22;13669;50.186;27.062;2022-08-04T12:52:56;35.00;99.90
25839;DHT22;13669;50.186;27.062;2022-08-04T12:55:32;33.30;99.90
25839;DHT22;13669;50.186;27.062;2022-08-04T12:58:02;33.60;99.90
25839;DHT22;13669;50.186;27.062;2022-08-04T13:00:35;34.80;99.90
25839;DHT22;13669;50.186;27.062;2022-08-04T13:03:13;35.20;99.90
25839;DHT22;13669;50.186;27.062;2022-08-04T13:05:44;35.20;99.90
25839;DHT22;13669;50.186;27.062;2022-08-04T13:08:12;35.40;99.90
25839;DHT22;13669;50.186;27.062;2022-08-04T13:10:44;35.90;99.90
25839;DHT22;13669;50.186;27.062;2022-08-04T13:13:20;36.70;99.90
25839;DHT22;13669;50.186;27.062;2022-08-04T13:16:02;36.60;99.90
25839;DHT22;13669;50.186;27.062;2022-08-04T13:18:37;35.00;99.90
25839;DHT22;13669;50.186;27.062;2022-08-04T13:21:15;34.50;99.90
25839;DHT22;13669;50.186;27.062;2022-08-04T13:23:56;35.20;99.90
25839;DHT22;13669;50.186;27.062;2022-08-04T13:29:28;37.50;99.90
25839;DHT22;13669;50.186;27.062;2022-08-04T13:32:19;38.30;99.90
25839;DHT22;13669;50.186;27.062;2022-08-04T13:34:51;38.80;99.90
25839;DHT22;13669;50.186;27.062;2022-08-04T13:37:23;38.60;99.90
25839;DHT22;13669;50.186;27.062;2022-08-04T13:39:53;37.40;99.90
25839;DHT22;13669;50.186;27.062;2022-08-04T13:42:24;37.60;99.90
25839;DHT22;13669;50.186;27.062;2022-08-04T13:44:58;38.20;99.90
25839;DHT22;13669;50.186;27.062;2022-08-04T13:47:35;38.80;99.90
25839;DHT22;13669;50.186;27.062;2022-08-04T13:50:28;38.40;99.90
25839;DHT22;13669;50.186;27.062;2022-08-04T13:52:58;38.40;99.90
25839;DHT22;13669;50.186;27.062;2022-08-04T13:55:34;38.20;99.90
25839;DHT22;13669;50.186;27.062;2022-08-04T13:58:13;37.90;99.90
25839;DHT22;13669;50.186;27.062;2022-08-04T14:01:04;37.80;99.90
25839;DHT22;13669;50.186;27.062;2022-08-04T14:03:39;37.50;99.90
25839;DHT22;13669;50.186;27.062;2022-08-04T14:08:49;37.60;99.90
25839;DHT22;13669;50.186;27.062;2022-08-04T14:11:21;37.90;99.90
25839;DHT22;13669;50.186;27.062;2022-08-04T14:19:59;37.60;99.90
25839;DHT22;13669;50.186;27.062;2022-08-04T14:25:14;37.80;99.90
25839;DHT22;13669;50.186;27.062;2022-08-04T14:30:35;37.60;99.90
25839;DHT22;13669;50.186;27.062;2022-08-04T14:33:05;37.20;99.90
25839;DHT22;13669;50.186;27.062;2022-08-04T14:35:56;36.90;99.90
25839;DHT22;13669;50.186;27.062;2022-08-04T14:38:58;37.10;99.90
25839;DHT22;13669;50.186;27.062;2022-08-04T14:41:29;37.30;99.90
25839;DHT22;13669;50.186;27.062;2022-08-04T14:44:02;37.20;99.90
25839;DHT22;13669;50.186;27.062;2022-08-04T14:46:33;36.90;99.90
25839;DHT22;13669;50.186;27.062;2022-08-04T14:49:09;37.20;99.90
25839;DHT22;13669;50.186;27.062;2022-08-04T14:51:41;37.60;99.90
25839;DHT22;13669;50.186;27.062;2022-08-04T14:54:10;37.00;99.90
25839;DHT22;13669;50.186;27.062;2022-08-04T14:56:55;35.70;99.90
25839;DHT22;13669;50.186;27.062;2022-08-04T14:59:24;34.30;99.90
25839;DHT22;13669;50.186;27.062;2022-08-04T15:01:54;32.90;99.90
25839;DHT22;13669;50.186;27.062;2022-08-04T15:04:28;32.00;99.90
25839;DHT22;13669;50.186;27.062;2022-08-04T15:06:58;31.40;99.90
25839;DHT22;13669;50.186;27.062;2022-08-04T15:09:32;30.80;99.90
25839;DHT22;13669;50.186;27.062;2022-08-04T15:12:01;30.40;99.90
25839;DHT22;13669;50.186;27.062;2022-08-04T15:14:31;29.90;99.90
25839;DHT22;13669;50.186;27.062;2022-08-04T15:17:05;29.60;99.90
25839;DHT22;13669;50.186;27.062;2022-08-04T15:19:54;29.40;99.90
25839;DHT22;13669;50.186;27.062;2022-08-04T15:22:22;29.00;99.90
25839;DHT22;13669;50.186;27.062;2022-08-04T15:24:50;28.80;99.90
25839;DHT22;13669;50.186;27.062;2022-08-04T15:27:33;28.60;99.90
25839;DHT22;13669;50.186;27.062;2022-08-04T15:30:07;28.50;99.90
25839;DHT22;13669;50.186;27.062;2022-08-04T15:32:42;28.40;99.90
25839;DHT22;13669;50.186;27.062;2022-08-04T15:35:16;28.40;99.90
25839;DHT22;13669;50.186;27.062;2022-08-04T15:45:57;28.50;99.90
25839;DHT22;13669;50.186;27.062;2022-08-04T15:48:51;29.60;99.90
25839;DHT22;13669;50.186;27.062;2022-08-04T15:51:27;30.30;99.90
25839;DHT22;13669;50.186;27.062;2022-08-04T15:58:57;30.40;99.90
25839;DHT22;13669;50.186;27.062;2022-08-04T16:01:25;29.90;99.90
25839;DHT22;13669;50.186;27.062;2022-08-04T16:03:54;29.60;99.90
25839;DHT22;13669;50.186;27.062;2022-08-04T16:08:58;28.90;99.90
25839;DHT22;13669;50.186;27.062;2022-08-04T16:22:03;27.70;99.90
25839;DHT22;13669;50.186;27.062;2022-08-04T16:24:38;27.50;99.90
25839;DHT22;13669;50.186;27.062;2022-08-04T16:27:11;27.40;99.90
25839;DHT22;13669;50.186;27.062;2022-08-04T16:32:14;27.40;99.90
25839;DHT22;13669;50.186;27.062;2022-08-04T16:37:28;27.20;99.90
25839;DHT22;13669;50.186;27.062;2022-08-04T16:40:29;27.10;99.90
25839;DHT22;13669;50.186;27.062;2022-08-04T16:43:08;27.00;99.90
25839;DHT22;13669;50.186;27.062;2022-08-04T16:48:21;26.80;99.90
25839;DHT22;13669;50.186;27.062;2022-08-04T16:50:59;26.70;99.90
25839;DHT22;13669;50.186;27.062;2022-08-04T16:53:37;26.60;99.90
25839;DHT22;13669;50.186;27.062;2022-08-04T16:56:32;26.50;99.90
25839;DHT22;13669;50.186;27.062;2022-08-04T16:59:05;26.30;99.90
25839;DHT22;13669;50.186;27.062;2022-08-04T17:01:33;26.30;1.00
25839;DHT22;13669;50.186;27.062;2022-08-04T17:04:02;26.30;1.00
25839;DHT22;13669;50.186;27.062;2022-08-04T17:06:39;26.20;1.00
25839;DHT22;13669;50.186;27.062;2022-08-04T17:09:14;26.10;1.00
25839;DHT22;13669;50.186;27.062;2022-08-04T17:11:43;26.00;1.00
25839;DHT22;13669;50.186;27.062;2022-08-04T17:14:12;26.00;1.00
25839;DHT22;13669;50.186;27.062;2022-08-04T17:16:41;26.00;1.00
25839;DHT22;13669;50.186;27.062;2022-08-04T17:19:09;25.90;1.00
25839;DHT22;13669;50.186;27.062;2022-08-04T17:22:00;25.70;1.00
25839;DHT22;13669;50.186;27.062;2022-08-04T17:24:36;25.60;1.00
25839;DHT22;13669;50.186;27.062;2022-08-04T17:27:05;25.40;41.50
25839;DHT22;13669;50.186;27.062;2022-08-04T17:29:53;25.40;99.90
25839;DHT22;13669;50.186;27.062;2022-08-04T17:32:22;25.40;99.90
25839;DHT22;13669;50.186;27.062;2022-08-04T17:34:52;25.40;99.90
25839;DHT22;13669;50.186;27.062;2022-08-04T17:37:21;25.30;99.90
25839;DHT22;13669;50.186;27.062;2022-08-04T17:40:13;25.20;99.90
25839;DHT22;13669;50.186;27.062;2022-08-04T17:42:59;25.10;99.90
25839;DHT22;13669;50.186;27.062;2022-08-04T17:45:27;25.00;99.90
25839;DHT22;13669;50.186;27.062;2022-08-04T17:48:19;24.90;99.90
25839;DHT22;13669;50.186;27.062;2022-08-04T17:50:51;24.70;99.90
25839;DHT22;13669;50.186;27.062;2022-08-04T17:53:31;24.60;99.90
25839;DHT22;13669;50.186;27.062;2022-08-04T17:56:31;24.50;1.00
25839;DHT22;13669;50.186;27.062;2022-08-04T18:02:06;24.40;1.00
25839;DHT22;13669;50.186;27.062;2022-08-04T18:07:36;24.20;99.90
25839;DHT22;13669;50.186;27.062;2022-08-04T18:10:41;24.20;99.90
25839;DHT22;13669;50.186;27.062;2022-08-04T18:13:29;24.10;99.90
25839;DHT22;13669;50.186;27.062;2022-08-04T18:16:09;24.10;99.90
25839;DHT22;13669;50.186;27.062;2022-08-04T18:19:08;24.00;99.90
25839;DHT22;13669;50.186;27.062;2022-08-04T18:21:36;23.90;1.00
25839;DHT22;13669;50.186;27.062;2022-08-04T18:24:24;23.90;1.00
25839;DHT22;13669;50.186;27.062;2022-08-04T18:27:12;23.80;10.20
25839;DHT22;13669;50.186;27.062;2022-08-04T18:29:41;23.80;92.70
25839;DHT22;13669;50.186;27.062;2022-08-04T18:32:28;23.70;99.90
25839;DHT22;13669;50.186;27.062;2022-08-04T18:35:00;23.70;99.90
25839;DHT22;13669;50.186;27.062;2022-08-04T18:37:37;23.60;99.90
25839;DHT22;13669;50.186;27.062;2022-08-04T18:40:25;23.60;99.90
25839;DHT22;13669;50.186;27.062;2022-08-04T18:43:10;23.60;1.00
25839;DHT22;13669;50.186;27.062;2022-08-04T18:45:40;23.50;1.00
25839;DHT22;13669;50.186;27.062;2022-08-04T18:48:17;23.40;1.00
25839;DHT22;13669;50.186;27.062;2022-08-04T18:50:44;23.40;16.30
25839;DHT22;13669;50.186;27.062;2022-08-04T18:53:32;23.40;99.90
25839;DHT22;13669;50.186;27.062;2022-08-04T18:56:03;23.30;99.90
25839;DHT22;13669;50.186;27.062;2022-08-04T18:58:46;23.30;99.90
25839;DHT22;13669;50.186;27.062;2022-08-04T19:01:14;23.30;99.90
25839;DHT22;13669;50.186;27.062;2022-08-04T19:03:42;23.20;99.90
25839;DHT22;13669;50.186;27.062;2022-08-04T19:06:14;23.20;1.00
25839;DHT22;13669;50.186;27.062;2022-08-04T19:08:42;23.10;1.00
25839;DHT22;13669;50.186;27.062;2022-08-04T19:11:11;23.10;75.10
25839;DHT22;13669;50.186;27.062;2022-08-04T19:14:03;23.00;99.90
25839;DHT22;13669;50.186;27.062;2022-08-04T19:16:31;23.00;1.00
25839;DHT22;13669;50.186;27.062;2022-08-04T19:19:03;22.90;1.00
25839;DHT22;13669;50.186;27.062;2022-08-04T19:21:32;22.90;42.70
25839;DHT22;13669;50.186;27.062;2022-08-04T19:24:20;22.90;99.90
25839;DHT22;13669;50.186;27.062;2022-08-04T19:27:02;22.80;99.90
25839;DHT22;13669;50.186;27.062;2022-08-04T19:29:34;22.80;1.00
25839;DHT22;13669;50.186;27.062;2022-08-04T19:32:07;22.80;99.90
25839;DHT22;13669;50.186;27.062;2022-08-04T19:34:44;22.70;99.90
25839;DHT22;13669;50.186;27.062;2022-08-04T19:37:17;22.70;1.00
25839;DHT22;13669;50.186;27.062;2022-08-04T19:40:07;22.60;52.10
25839;DHT22;13669;50.186;27.062;2022-08-04T19:42:36;22.60;1.00
25839;DHT22;13669;50.186;27.062;2022-08-04T19:45:06;22.50;1.00
25839;DHT22;13669;50.186;27.062;2022-08-04T19:47:34;22.40;99.90
25839;DHT22;13669;50.186;27.062;2022-08-04T19:50:21;22.30;99.90
25839;DHT22;13669;50.186;27.062;2022-08-04T19:52:50;22.20;1.00
25839;DHT22;13669;50.186;27.062;2022-08-04T19:55:20;22.20;99.90
25839;DHT22;13669;50.186;27.062;2022-08-04T19:58:05;22.10;1.00
25839;DHT22;13669;50.186;27.062;2022-08-04T20:00:35;22.00;98.30
25839;DHT22;13669;50.186;27.062;2022-08-04T20:03:04;22.00;73.90
25839;DHT22;13669;50.186;27.062;2022-08-04T20:05:44;22.00;65.30
25839;DHT22;13669;50.186;27.062;2022-08-04T20:08:30;21.90;99.90
25839;DHT22;13669;50.186;27.062;2022-08-04T20:10:58;21.90;99.90
25839;DHT22;13669;50.186;27.062;2022-08-04T20:13:26;21.70;99.90
25839;DHT22;13669;50.186;27.062;2022-08-04T20:16:05;21.60;99.90
25839;DHT22;13669;50.186;27.062;2022-08-04T20:18:52;21.60;1.00
25839;DHT22;13669;50.186;27.062;2022-08-04T20:21:25;21.60;1.00
25839;DHT22;13669;50.186;27.062;2022-08-04T20:24:12;21.50;1.00
25839;DHT22;13669;50.186;27.062;2022-08-04T20:27:00;21.50;1.00
25839;DHT22;13669;50.186;27.062;2022-08-04T20:29:35;21.50;1.00
25839;DHT22;13669;50.186;27.062;2022-08-04T20:32:07;21.40;1.00
25839;DHT22;13669;50.186;27.062;2022-08-04T20:34:37;21.40;1.00
25839;DHT22;13669;50.186;27.062;2022-08-04T20:37:07;21.40;1.00
25839;DHT22;13669;50.186;27.062;2022-08-04T20:39:36;21.40;1.00
25839;DHT22;13669;50.186;27.062;2022-08-04T20:42:05;21.30;1.00
25839;DHT22;13669;50.186;27.062;2022-08-04T20:44:37;21.30;1.00
25839;DHT22;13669;50.186;27.062;2022-08-04T20:47:12;21.30;1.00
25839;DHT22;13669;50.186;27.062;2022-08-04T20:49:40;21.20;1.00
25839;DHT22;13669;50.186;27.062;2022-08-04T20:52:09;21.20;1.00
25839;DHT22;13669;50.186;27.062;2022-08-04T20:54:44;21.30;1.00